sensor_id;sensor_type;location;lat;lon;timestamp;pressure;altitude;pressure_sealevel;temperature;humidity
11198;BME280;5655;48.744;9.162;2022-08-26T00:00:48;95951.69;;;24.24;nan
11198;BME280;5655;48.744;9.162;2022-08-26T00:03:14;95956.00;;;24.16;nan
11198;BME280;5655;48.744;9.162;2022-08-26T00:05:42;95943.09;;;23.98;nan
11198;BME280;5655;48.744;9.162;2022-08-26T00:08:08;95949.69;;;23.73;nan
11198;BME280;5655;48.744;9.162;2022-08-26T00:10:34;95949.84;;;23.70;nan
11198;BME280;5655;48.744;9.162;2022-08-26T00:13:00;95946.97;;;23.64;nan
11198;BME280;5655;48.744;9.162;2022-08-26T00:15:25;95947.59;;;23.50;nan
11198;BME280;5655;48.744;9.162;2022-08-26T00:17:52;95941.00;;;23.84;nan
11198;BME280;5655;48.744;9.162;2022-08-26T00:20:20;95947.41;;;23.81;nan
11198;BME280;5655;48.744;9.162;2022-08-26T00:22:46;95946.75;;;23.86;nan
11198;BME280;5655;48.744;9.162;2022-08-26T00:25:13;95940.59;;;23.67;nan
11198;BME280;5655;48.744;9.162;2022-08-26T00:27:39;95945.47;;;23.63;nan
11198;BME280;5655;48.744;9.162;2022-08-26T00:30:08;95941.59;;;23.88;nan
11198;BME280;5655;48.744;9.162;2022-08-26T00:32:35;95945.31;;;23.48;nan
11198;BME280;5655;48.744;9.162;2022-08-26T00:35:01;95936.06;;;23.46;nan
11198;BME280;5655;48.744;9.162;2022-08-26T00:37:27;95942.31;;;23.46;nan
11198;BME280;5655;48.744;9.162;2022-08-26T00:39:52;95940.63;;;23.49;nan
11198;BME280;5655;48.744;9.162;2022-08-26T00:42:18;95943.34;;;23.58;nan
11198;BME280;5655;48.744;9.162;2022-08-26T00:44:43;95937.88;;;23.40;nan
11198;BME280;5655;48.744;9.162;2022-08-26T00:47:18;95942.13;;;23.59;nan
11198;BME280;5655;48.744;9.162;2022-08-26T00:49:47;95939.69;;;23.06;nan
11198;BME280;5655;48.744;9.162;2022-08-26T00:52:16;95938.78;;;23.37;nan
11198;BME280;5655;48.744;9.162;2022-08-26T00:54:48;95946.69;;;23.17;nan
11198;BME280;5655;48.744;9.162;2022-08-26T00:57:16;95945.16;;;23.25;nan
11198;BME280;5655;48.744;9.162;2022-08-26T00:59:52;95949.72;;;23.37;nan
11198;BME280;5655;48.744;9.162;2022-08-26T01:02:19;95945.78;;;23.38;nan
11198;BME280;5655;48.744;9.162;2022-08-26T01:04:46;95948.19;;;23.18;nan
11198;BME280;5655;48.744;9.162;2022-08-26T01:07:11;95949.41;;;23.17;nan
11198;BME280;5655;48.744;9.162;2022-08-26T01:09:37;95945.16;;;23.34;nan
11198;BME280;5655;48.744;9.162;2022-08-26T01:12:02;95947.28;;;23.57;nan
11198;BME280;5655;48.744;9.162;2022-08-26T01:14:33;95949.69;;;23.73;nan
11198;BME280;5655;48.744;9.162;2022-08-26T01:17:00;95950.91;;;23.27;nan
11198;BME280;5655;48.744;9.162;2022-08-26T01:19:30;95945.31;;;23.12;nan
11198;BME280;5655;48.744;9.162;2022-08-26T01:22:00;95949.53;;;23.04;nan
11198;BME280;5655;48.744;9.162;2022-08-26T01:24:30;95953.28;;;22.70;nan
11198;BME280;5655;48.744;9.162;2022-08-26T01:26:58;95944.84;;;22.86;nan
11198;BME280;5655;48.744;9.162;2022-08-26T01:29:26;95954.97;;;22.77;nan
11198;BME280;5655;48.744;9.162;2022-08-26T01:31:55;95944.97;;;22.92;nan
11198;BME280;5655;48.744;9.162;2022-08-26T01:34:27;95944.84;;;23.14;nan
11198;BME280;5655;48.744;9.162;2022-08-26T01:36:58;95940.31;;;23.20;nan
11198;BME280;5655;48.744;9.162;2022-08-26T01:39:25;95949.41;;;23.08;nan
11198;BME280;5655;48.744;9.162;2022-08-26T01:41:52;95944.56;;;23.30;nan
11198;BME280;5655;48.744;9.162;2022-08-26T01:44:24;95947.88;;;23.43;nan
11198;BME280;5655;48.744;9.162;2022-08-26T01:46:52;95948.50;;;23.11;nan
11198;BME280;5655;48.744;9.162;2022-08-26T01:49:19;95945.00;;;23.01;nan
11198;BME280;5655;48.744;9.162;2022-08-26T01:51:48;95943.34;;;23.03;nan
11198;BME280;5655;48.744;9.162;2022-08-26T01:54:15;95947.25;;;22.84;nan
11198;BME280;5655;48.744;9.162;2022-08-26T01:56:40;95948.16;;;22.81;nan
11198;BME280;5655;48.744;9.162;2022-08-26T01:59:08;95942.56;;;22.85;nan
11198;BME280;5655;48.744;9.162;2022-08-26T02:01:34;95948.28;;;22.69;nan
11198;BME280;5655;48.744;9.162;2022-08-26T02:06:41;95948.66;;;23.07;nan
11198;BME280;5655;48.744;9.162;2022-08-26T02:09:07;95945.31;;;23.12;nan
11198;BME280;5655;48.744;9.162;2022-08-26T02:11:33;95947.25;;;22.84;nan
11198;BME280;5655;48.744;9.162;2022-08-26T02:14:03;95947.09;;;22.79;nan
11198;BME280;5655;48.744;9.162;2022-08-26T02:16:33;95947.41;;;22.81;nan
11198;BME280;5655;48.744;9.162;2022-08-26T02:19:01;95948.41;;;22.56;nan
11198;BME280;5655;48.744;9.162;2022-08-26T02:21:28;95955.66;;;22.59;nan
11198;BME280;5655;48.744;9.162;2022-08-26T02:23:54;95950.00;;;22.93;nan
11198;BME280;5655;48.744;9.162;2022-08-26T02:26:22;95953.28;;;22.70;nan
11198;BME280;5655;48.744;9.162;2022-08-26T02:29:09;95953.00;;;22.77;nan
11198;BME280;5655;48.744;9.162;2022-08-26T02:31:36;95957.16;;;22.51;nan
11198;BME280;5655;48.744;9.162;2022-08-26T02:34:14;95948.44;;;22.74;nan
11198;BME280;5655;48.744;9.162;2022-08-26T02:36:40;95952.31;;;22.55;nan
11198;BME280;5655;48.744;9.162;2022-08-26T02:39:07;95954.72;;;22.53;nan
11198;BME280;5655;48.744;9.162;2022-08-26T02:41:32;95944.59;;;22.53;nan
11198;BME280;5655;48.744;9.162;2022-08-26T02:43:58;95948.66;;;22.49;nan
11198;BME280;5655;48.744;9.162;2022-08-26T02:46:24;95945.63;;;22.47;nan
11198;BME280;5655;48.744;9.162;2022-08-26T02:48:49;95942.28;;;22.43;nan
11198;BME280;5655;48.744;9.162;2022-08-26T02:51:15;95944.44;;;22.57;nan
11198;BME280;5655;48.744;9.162;2022-08-26T02:53:40;95945.09;;;22.21;nan
11198;BME280;5655;48.744;9.162;2022-08-26T02:56:07;95950.47;;;22.03;nan
11198;BME280;5655;48.744;9.162;2022-08-26T02:58:32;95954.53;;;21.98;nan
11198;BME280;5655;48.744;9.162;2022-08-26T03:00:58;95946.19;;;22.33;nan
11198;BME280;5655;48.744;9.162;2022-08-26T03:03:24;95944.41;;;22.48;nan
11198;BME280;5655;48.744;9.162;2022-08-26T03:05:50;95942.00;;;22.50;nan
11198;BME280;5655;48.744;9.162;2022-08-26T03:08:16;95934.28;;;22.57;nan
11198;BME280;5655;48.744;9.162;2022-08-26T03:10:41;95931.69;;;22.45;nan
11198;BME280;5655;48.744;9.162;2022-08-26T03:13:06;95941.53;;;22.42;nan
11198;BME280;5655;48.744;9.162;2022-08-26T03:15:32;95930.13;;;22.26;nan
11198;BME280;5655;48.744;9.162;2022-08-26T03:17:57;95927.03;;;22.14;nan
11198;BME280;5655;48.744;9.162;2022-08-26T03:20:23;95925.59;;;22.01;nan
11198;BME280;5655;48.744;9.162;2022-08-26T03:22:48;95930.19;;;22.04;nan
11198;BME280;5655;48.744;9.162;2022-08-26T03:25:17;95926.16;;;22.17;nan
11198;BME280;5655;48.744;9.162;2022-08-26T03:27:43;95924.66;;;22.26;nan
11198;BME280;5655;48.744;9.162;2022-08-26T03:30:09;95932.69;;;22.29;nan
11198;BME280;5655;48.744;9.162;2022-08-26T03:32:53;95927.13;;;22.42;nan
11198;BME280;5655;48.744;9.162;2022-08-26T03:35:19;95935.63;;;22.53;nan
11198;BME280;5655;48.744;9.162;2022-08-26T03:37:44;95927.13;;;22.42;nan
11198;BME280;5655;48.744;9.162;2022-08-26T03:40:10;95930.16;;;22.35;nan
11198;BME280;5655;48.744;9.162;2022-08-26T03:42:37;95933.31;;;22.33;nan
11198;BME280;5655;48.744;9.162;2022-08-26T03:45:05;95938.16;;;22.29;nan
11198;BME280;5655;48.744;9.162;2022-08-26T03:47:31;95933.75;;;22.32;nan
11198;BME280;5655;48.744;9.162;2022-08-26T03:49:58;95936.75;;;22.15;nan
11198;BME280;5655;48.744;9.162;2022-08-26T03:52:23;95933.44;;;22.21;nan
11198;BME280;5655;48.744;9.162;2022-08-26T03:54:49;95927.97;;;22.21;nan
11198;BME280;5655;48.744;9.162;2022-08-26T03:57:14;95933.13;;;22.28;nan
11198;BME280;5655;48.744;9.162;2022-08-26T03:59:39;95938.22;;;22.47;nan
11198;BME280;5655;48.744;9.162;2022-08-26T04:02:05;95932.88;;;22.35;nan
11198;BME280;5655;48.744;9.162;2022-08-26T04:04:30;95933.28;;;22.24;nan
11198;BME280;5655;48.744;9.162;2022-08-26T04:06:57;95934.13;;;22.52;nan
11198;BME280;5655;48.744;9.162;2022-08-26T04:09:24;95931.69;;;22.45;nan
11198;BME280;5655;48.744;9.162;2022-08-26T04:11:49;95927.34;;;22.16;nan
11198;BME280;5655;48.744;9.162;2022-08-26T04:14:18;95929.13;;;22.10;nan
11198;BME280;5655;48.744;9.162;2022-08-26T04:16:44;95923.09;;;22.15;nan
11198;BME280;5655;48.744;9.162;2022-08-26T04:19:12;95925.59;;;22.41;nan
11198;BME280;5655;48.744;9.162;2022-08-26T04:21:38;95928.28;;;22.23;nan
11198;BME280;5655;48.744;9.162;2022-08-26T04:24:05;95930.69;;;22.21;nan
11198;BME280;5655;48.744;9.162;2022-08-26T04:26:31;95932.22;;;21.91;nan
11198;BME280;5655;48.744;9.162;2022-08-26T04:29:05;95925.72;;;22.28;nan
11198;BME280;5655;48.744;9.162;2022-08-26T04:31:32;95921.91;;;22.16;nan
11198;BME280;5655;48.744;9.162;2022-08-26T04:33:58;95923.41;;;22.08;nan
11198;BME280;5655;48.744;9.162;2022-08-26T04:36:23;95924.91;;;21.79;nan
11198;BME280;5655;48.744;9.162;2022-08-26T04:38:49;95927.03;;;21.62;nan
11198;BME280;5655;48.744;9.162;2022-08-26T04:41:18;95929.69;;;21.74;nan
11198;BME280;5655;48.744;9.162;2022-08-26T04:43:44;95926.75;;;21.60;nan
11198;BME280;5655;48.744;9.162;2022-08-26T04:46:10;95932.53;;;21.71;nan
11198;BME280;5655;48.744;9.162;2022-08-26T04:48:36;95919.75;;;22.11;nan
11198;BME280;5655;48.744;9.162;2022-08-26T04:51:02;95924.13;;;22.00;nan
11198;BME280;5655;48.744;9.162;2022-08-26T04:53:29;95925.03;;;22.06;nan
11198;BME280;5655;48.744;9.162;2022-08-26T04:55:55;95927.06;;;22.24;nan
11198;BME280;5655;48.744;9.162;2022-08-26T04:58:22;95923.34;;;21.99;nan
11198;BME280;5655;48.744;9.162;2022-08-26T05:00:50;95928.06;;;21.77;nan
11198;BME280;5655;48.744;9.162;2022-08-26T05:03:17;95934.84;;;21.51;nan
11198;BME280;5655;48.744;9.162;2022-08-26T05:05:44;95937.22;;;21.61;nan
11198;BME280;5655;48.744;9.162;2022-08-26T05:08:12;95936.03;;;21.71;nan
11198;BME280;5655;48.744;9.162;2022-08-26T05:10:44;95933.31;;;21.93;nan
11198;BME280;5655;48.744;9.162;2022-08-26T05:13:11;95933.22;;;22.06;nan
11198;BME280;5655;48.744;9.162;2022-08-26T05:15:37;95935.78;;;22.00;nan
11198;BME280;5655;48.744;9.162;2022-08-26T05:18:04;95938.25;;;22.16;nan
11198;BME280;5655;48.744;9.162;2022-08-26T05:20:31;95936.06;;;22.02;nan
11198;BME280;5655;48.744;9.162;2022-08-26T05:22:58;95940.94;;;22.07;nan
11198;BME280;5655;48.744;9.162;2022-08-26T05:25:26;95936.06;;;22.02;nan
11198;BME280;5655;48.744;9.162;2022-08-26T05:27:51;95944.41;;;21.77;nan
11198;BME280;5655;48.744;9.162;2022-08-26T05:30:16;95935.31;;;22.02;nan
11198;BME280;5655;48.744;9.162;2022-08-26T05:32:42;95935.66;;;21.82;nan
11198;BME280;5655;48.744;9.162;2022-08-26T05:35:07;95945.78;;;21.82;nan
11198;BME280;5655;48.744;9.162;2022-08-26T05:37:33;95952.50;;;21.68;nan
11198;BME280;5655;48.744;9.162;2022-08-26T05:40:01;95947.34;;;21.92;nan
11198;BME280;5655;48.744;9.162;2022-08-26T05:42:27;95954.28;;;21.62;nan
11198;BME280;5655;48.744;9.162;2022-08-26T05:44:53;95958.91;;;21.74;nan
11198;BME280;5655;48.744;9.162;2022-08-26T05:47:18;95947.03;;;21.90;nan
11198;BME280;5655;48.744;9.162;2022-08-26T05:49:44;95952.13;;;22.00;nan
11198;BME280;5655;48.744;9.162;2022-08-26T05:52:09;95961.19;;;21.97;nan
11198;BME280;5655;48.744;9.162;2022-08-26T05:54:37;95959.16;;;22.20;nan
11198;BME280;5655;48.744;9.162;2022-08-26T05:57:03;95960.34;;;21.88;nan
11198;BME280;5655;48.744;9.162;2022-08-26T05:59:28;95960.59;;;21.81;nan
11198;BME280;5655;48.744;9.162;2022-08-26T06:01:54;95963.78;;;21.79;nan
11198;BME280;5655;48.744;9.162;2022-08-26T06:04:19;95968.34;;;21.82;nan
11198;BME280;5655;48.744;9.162;2022-08-26T06:06:44;95967.47;;;21.63;nan
11198;BME280;5655;48.744;9.162;2022-08-26T06:09:10;95967.97;;;21.71;nan
11198;BME280;5655;48.744;9.162;2022-08-26T06:11:35;95972.97;;;21.72;nan
11198;BME280;5655;48.744;9.162;2022-08-26T06:14:04;95973.97;;;21.66;nan
11198;BME280;5655;48.744;9.162;2022-08-26T06:16:31;95972.56;;;21.83;nan
11198;BME280;5655;48.744;9.162;2022-08-26T06:18:58;95978.75;;;21.53;nan
11198;BME280;5655;48.744;9.162;2022-08-26T06:21:30;95981.00;;;21.76;nan
11198;BME280;5655;48.744;9.162;2022-08-26T06:24:02;95983.44;;;21.74;nan
11198;BME280;5655;48.744;9.162;2022-08-26T06:26:52;95977.00;;;21.90;nan
11198;BME280;5655;48.744;9.162;2022-08-26T06:29:20;95979.06;;;21.98;nan
11198;BME280;5655;48.744;9.162;2022-08-26T06:31:46;95969.31;;;22.19;nan
11198;BME280;5655;48.744;9.162;2022-08-26T06:34:12;95974.28;;;22.11;nan
11198;BME280;5655;48.744;9.162;2022-08-26T06:36:41;95977.69;;;22.25;nan
11198;BME280;5655;48.744;9.162;2022-08-26T06:39:09;95978.69;;;22.18;nan
11198;BME280;5655;48.744;9.162;2022-08-26T06:41:36;95973.19;;;22.40;nan
11198;BME280;5655;48.744;9.162;2022-08-26T06:44:03;95975.28;;;22.36;nan
11198;BME280;5655;48.744;9.162;2022-08-26T06:46:28;95973.06;;;22.52;nan
11198;BME280;5655;48.744;9.162;2022-08-26T06:48:54;95976.28;;;22.60;nan
11198;BME280;5655;48.744;9.162;2022-08-26T06:51:25;95970.75;;;22.82;nan
11198;BME280;5655;48.744;9.162;2022-08-26T06:53:53;95979.56;;;22.86;nan
11198;BME280;5655;48.744;9.162;2022-08-26T06:56:21;95976.69;;;22.89;nan
11198;BME280;5655;48.744;9.162;2022-08-26T06:58:48;95974.25;;;23.00;nan
11198;BME280;5655;48.744;9.162;2022-08-26T07:01:19;95979.91;;;23.24;nan
11198;BME280;5655;48.744;9.162;2022-08-26T07:03:47;95977.94;;;23.52;nan
11198;BME280;5655;48.744;9.162;2022-08-26T07:06:13;95975.22;;;23.61;nan
11198;BME280;5655;48.744;9.162;2022-08-26T07:08:39;95981.56;;;23.76;nan
11198;BME280;5655;48.744;9.162;2022-08-26T07:11:09;95980.28;;;24.05;nan
11198;BME280;5655;48.744;9.162;2022-08-26T07:13:35;95977.22;;;24.21;nan
11198;BME280;5655;48.744;9.162;2022-08-26T07:16:09;95975.72;;;24.20;nan
11198;BME280;5655;48.744;9.162;2022-08-26T07:18:38;95980.78;;;24.45;nan
11198;BME280;5655;48.744;9.162;2022-08-26T07:21:07;95977.44;;;24.50;nan
11198;BME280;5655;48.744;9.162;2022-08-26T07:23:34;95977.72;;;24.52;nan
11198;BME280;5655;48.744;9.162;2022-08-26T07:26:08;95971.22;;;24.73;nan
11198;BME280;5655;48.744;9.162;2022-08-26T07:28:34;95970.75;;;24.75;nan
11198;BME280;5655;48.744;9.162;2022-08-26T07:31:07;95977.19;;;24.96;nan
11198;BME280;5655;48.744;9.162;2022-08-26T07:33:34;95980.75;;;25.11;nan
11198;BME280;5655;48.744;9.162;2022-08-26T07:36:01;95980.75;;;25.11;nan
11198;BME280;5655;48.744;9.162;2022-08-26T07:38:27;95968.72;;;25.32;nan
11198;BME280;5655;48.744;9.162;2022-08-26T07:40:52;95964.00;;;25.33;nan
11198;BME280;5655;48.744;9.162;2022-08-26T07:43:18;95970.44;;;25.44;nan
11198;BME280;5655;48.744;9.162;2022-08-26T07:45:43;95975.94;;;25.44;nan
11198;BME280;5655;48.744;9.162;2022-08-26T07:48:09;95971.16;;;25.68;nan
11198;BME280;5655;48.744;9.162;2022-08-26T07:50:34;95969.94;;;25.69;nan
11198;BME280;5655;48.744;9.162;2022-08-26T07:53:00;95970.31;;;25.77;nan
11198;BME280;5655;48.744;9.162;2022-08-26T07:55:27;95966.72;;;25.86;nan
11198;BME280;5655;48.744;9.162;2022-08-26T07:57:52;95972.50;;;25.88;nan
11198;BME280;5655;48.744;9.162;2022-08-26T08:00:18;95979.03;;;25.90;nan
11198;BME280;5655;48.744;9.162;2022-08-26T08:02:43;95982.81;;;25.93;nan
11198;BME280;5655;48.744;9.162;2022-08-26T08:05:12;95983.97;;;26.01;nan
11198;BME280;5655;48.744;9.162;2022-08-26T08:07:38;95982.44;;;26.14;nan
11198;BME280;5655;48.744;9.162;2022-08-26T08:10:04;95979.78;;;26.20;nan
11198;BME280;5655;48.744;9.162;2022-08-26T08:12:30;95986.81;;;26.21;nan
11198;BME280;5655;48.744;9.162;2022-08-26T08:14:55;95983.94;;;26.15;nan
11198;BME280;5655;48.744;9.162;2022-08-26T08:17:20;95984.69;;;26.16;nan
11198;BME280;5655;48.744;9.162;2022-08-26T08:19:46;95983.41;;;26.26;nan
11198;BME280;5655;48.744;9.162;2022-08-26T08:22:11;95981.22;;;26.30;nan
11198;BME280;5655;48.744;9.162;2022-08-26T08:24:37;95984.13;;;26.41;nan
11198;BME280;5655;48.744;9.162;2022-08-26T08:27:02;95978.72;;;26.32;nan
11198;BME280;5655;48.744;9.162;2022-08-26T08:29:28;95978.63;;;26.41;nan
11198;BME280;5655;48.744;9.162;2022-08-26T08:31:57;95971.03;;;26.51;nan
11198;BME280;5655;48.744;9.162;2022-08-26T08:34:24;95975.66;;;26.59;nan
11198;BME280;5655;48.744;9.162;2022-08-26T08:36:50;95969.09;;;26.72;nan
11198;BME280;5655;48.744;9.162;2022-08-26T08:39:16;95982.91;;;26.92;nan
11198;BME280;5655;48.744;9.162;2022-08-26T08:44:19;95972.00;;;26.83;nan
11198;BME280;5655;48.744;9.162;2022-08-26T08:46:48;95972.03;;;27.03;nan
11198;BME280;5655;48.744;9.162;2022-08-26T08:49:14;95971.63;;;26.90;nan
11198;BME280;5655;48.744;9.162;2022-08-26T08:54:15;95962.16;;;27.11;nan
11198;BME280;5655;48.744;9.162;2022-08-26T09:01:59;95964.59;;;27.49;nan
11198;BME280;5655;48.744;9.162;2022-08-26T09:04:52;95959.13;;;27.75;nan
11198;BME280;5655;48.744;9.162;2022-08-26T09:07:39;95960.94;;;27.84;nan
11198;BME280;5655;48.744;9.162;2022-08-26T09:10:27;95969.38;;;27.75;nan
11198;BME280;5655;48.744;9.162;2022-08-26T09:12:51;95967.38;;;27.75;nan
11198;BME280;5655;48.744;9.162;2022-08-26T09:15:22;95963.22;;;27.85;nan
11198;BME280;5655;48.744;9.162;2022-08-26T09:20:45;95968.41;;;27.78;nan
11198;BME280;5655;48.744;9.162;2022-08-26T09:23:13;95956.72;;;27.83;nan
11198;BME280;5655;48.744;9.162;2022-08-26T09:25:50;95961.72;;;28.10;nan
11198;BME280;5655;48.744;9.162;2022-08-26T09:28:19;95958.97;;;28.10;nan
11198;BME280;5655;48.744;9.162;2022-08-26T09:30:56;95958.34;;;28.26;nan
11198;BME280;5655;48.744;9.162;2022-08-26T09:33:27;95952.41;;;28.33;nan
11198;BME280;5655;48.744;9.162;2022-08-26T09:36:14;95960.00;;;28.50;nan
11198;BME280;5655;48.744;9.162;2022-08-26T09:38:41;95951.28;;;28.51;nan
11198;BME280;5655;48.744;9.162;2022-08-26T09:41:29;95954.97;;;28.79;nan
11198;BME280;5655;48.744;9.162;2022-08-26T09:46:50;95951.16;;;29.25;nan
11198;BME280;5655;48.744;9.162;2022-08-26T09:49:23;95942.88;;;29.19;nan
11198;BME280;5655;48.744;9.162;2022-08-26T09:52:16;95944.94;;;29.36;nan
11198;BME280;5655;48.744;9.162;2022-08-26T09:54:44;95932.91;;;29.39;nan
11198;BME280;5655;48.744;9.162;2022-08-26T09:57:29;95921.47;;;29.68;nan
11198;BME280;5655;48.744;9.162;2022-08-26T09:59:55;95920.72;;;29.79;nan
11198;BME280;5655;48.744;9.162;2022-08-26T10:05:02;95905.66;;;30.46;nan
11198;BME280;5655;48.744;9.162;2022-08-26T10:07:46;95896.84;;;30.70;nan
11198;BME280;5655;48.744;9.162;2022-08-26T10:10:17;95899.09;;;30.66;nan
11198;BME280;5655;48.744;9.162;2022-08-26T10:12:51;95897.84;;;30.67;nan
11198;BME280;5655;48.744;9.162;2022-08-26T10:15:22;95890.91;;;31.13;nan
11198;BME280;5655;48.744;9.162;2022-08-26T10:17:59;95898.50;;;31.01;nan
11198;BME280;5655;48.744;9.162;2022-08-26T10:20:34;95892.75;;;30.93;nan
11198;BME280;5655;48.744;9.162;2022-08-26T10:23:08;95881.59;;;31.16;nan
11198;BME280;5655;48.744;9.162;2022-08-26T10:25:53;95887.84;;;31.22;nan
11198;BME280;5655;48.744;9.162;2022-08-26T10:33:44;95876.88;;;31.46;nan
11198;BME280;5655;48.744;9.162;2022-08-26T10:36:14;95878.59;;;31.60;nan
11198;BME280;5655;48.744;9.162;2022-08-26T10:39:04;95884.41;;;32.22;nan
11198;BME280;5655;48.744;9.162;2022-08-26T10:41:36;95872.19;;;32.60;nan
11198;BME280;5655;48.744;9.162;2022-08-26T10:44:05;95882.91;;;32.45;nan
11198;BME280;5655;48.744;9.162;2022-08-26T10:46:38;95886.44;;;33.13;nan
11198;BME280;5655;48.744;9.162;2022-08-26T10:49:13;95884.94;;;33.12;nan
11198;BME280;5655;48.744;9.162;2022-08-26T10:55:00;95864.44;;;33.39;nan
11198;BME280;5655;48.744;9.162;2022-08-26T10:57:53;95866.19;;;33.55;nan
11198;BME280;5655;48.744;9.162;2022-08-26T11:00:28;95867.53;;;33.49;nan
11198;BME280;5655;48.744;9.162;2022-08-26T11:03:29;95858.72;;;33.13;nan
11198;BME280;5655;48.744;9.162;2022-08-26T11:08:53;95851.97;;;32.41;nan
11198;BME280;5655;48.744;9.162;2022-08-26T11:16:46;95845.41;;;32.44;nan
11198;BME280;5655;48.744;9.162;2022-08-26T11:22:31;95846.03;;;32.56;nan
11198;BME280;5655;48.744;9.162;2022-08-26T11:38:12;95832.34;;;32.63;nan
11198;BME280;5655;48.744;9.162;2022-08-26T11:40:39;95833.66;;;33.18;nan
11198;BME280;5655;48.744;9.162;2022-08-26T11:43:20;95830.47;;;32.71;nan
11198;BME280;5655;48.744;9.162;2022-08-26T11:45:58;95826.03;;;33.24;nan
11198;BME280;5655;48.744;9.162;2022-08-26T11:48:30;95815.72;;;34.02;nan
11198;BME280;5655;48.744;9.162;2022-08-26T11:53:27;95819.63;;;34.78;nan
11198;BME280;5655;48.744;9.162;2022-08-26T11:55:54;95821.97;;;34.87;nan
11198;BME280;5655;48.744;9.162;2022-08-26T11:58:21;95826.91;;;34.94;nan
11198;BME280;5655;48.744;9.162;2022-08-26T12:00:51;95831.13;;;35.08;nan
11198;BME280;5655;48.744;9.162;2022-08-26T12:03:22;95835.63;;;35.11;nan
11198;BME280;5655;48.744;9.162;2022-08-26T12:05:50;95833.84;;;34.35;nan
11198;BME280;5655;48.744;9.162;2022-08-26T12:08:25;95838.44;;;33.74;nan
11198;BME280;5655;48.744;9.162;2022-08-26T12:11:06;95837.56;;;33.47;nan
11198;BME280;5655;48.744;9.162;2022-08-26T12:13:34;95828.41;;;33.84;nan
11198;BME280;5655;48.744;9.162;2022-08-26T12:16:03;95834.31;;;33.94;nan
11198;BME280;5655;48.744;9.162;2022-08-26T12:18:32;95807.94;;;34.13;nan
11198;BME280;5655;48.744;9.162;2022-08-26T12:21:00;95818.03;;;34.69;nan
11198;BME280;5655;48.744;9.162;2022-08-26T12:26:07;95820.22;;;35.23;nan
11198;BME280;5655;48.744;9.162;2022-08-26T12:28:46;95815.94;;;35.09;nan
11198;BME280;5655;48.744;9.162;2022-08-26T12:31:20;95832.00;;;35.16;nan
11198;BME280;5655;48.744;9.162;2022-08-26T12:33:47;95826.38;;;34.56;nan
11198;BME280;5655;48.744;9.162;2022-08-26T12:36:18;95817.38;;;34.24;nan
11198;BME280;5655;48.744;9.162;2022-08-26T12:38:45;95819.00;;;33.87;nan
11198;BME280;5655;48.744;9.162;2022-08-26T12:41:11;95806.72;;;33.69;nan
11198;BME280;5655;48.744;9.162;2022-08-26T12:43:42;95796.09;;;34.79;nan
11198;BME280;5655;48.744;9.162;2022-08-26T12:46:15;95802.03;;;35.09;nan
11198;BME280;5655;48.744;9.162;2022-08-26T12:48:42;95796.44;;;35.22;nan
11198;BME280;5655;48.744;9.162;2022-08-26T12:51:22;95793.50;;;35.62;nan
11198;BME280;5655;48.744;9.162;2022-08-26T12:53:48;95795.53;;;35.82;nan
11198;BME280;5655;48.744;9.162;2022-08-26T12:56:35;95786.47;;;36.10;nan
11198;BME280;5655;48.744;9.162;2022-08-26T13:01:41;95783.66;;;35.81;nan
11198;BME280;5655;48.744;9.162;2022-08-26T13:07:23;95776.97;;;34.75;nan
11198;BME280;5655;48.744;9.162;2022-08-26T13:09:51;95778.72;;;34.26;nan
11198;BME280;5655;48.744;9.162;2022-08-26T13:12:28;95775.81;;;34.18;nan
11198;BME280;5655;48.744;9.162;2022-08-26T13:14:53;95777.59;;;33.57;nan
11198;BME280;5655;48.744;9.162;2022-08-26T13:17:19;95771.44;;;33.33;nan
11198;BME280;5655;48.744;9.162;2022-08-26T13:19:45;95770.34;;;33.36;nan
11198;BME280;5655;48.744;9.162;2022-08-26T13:22:11;95754.03;;;33.32;nan
11198;BME280;5655;48.744;9.162;2022-08-26T13:24:40;95751.00;;;33.17;nan
11198;BME280;5655;48.744;9.162;2022-08-26T13:27:08;95758.59;;;32.79;nan
11198;BME280;5655;48.744;9.162;2022-08-26T13:29:34;95759.09;;;32.77;nan
11198;BME280;5655;48.744;9.162;2022-08-26T13:32:00;95761.25;;;32.84;nan
11198;BME280;5655;48.744;9.162;2022-08-26T13:34:26;95757.75;;;32.65;nan
11198;BME280;5655;48.744;9.162;2022-08-26T13:36:53;95758.28;;;32.82;nan
11198;BME280;5655;48.744;9.162;2022-08-26T13:39:21;95760.31;;;32.39;nan
11198;BME280;5655;48.744;9.162;2022-08-26T13:41:46;95756.78;;;32.38;nan
11198;BME280;5655;48.744;9.162;2022-08-26T13:44:12;95759.09;;;32.34;nan
11198;BME280;5655;48.744;9.162;2022-08-26T13:46:38;95758.78;;;31.65;nan
11198;BME280;5655;48.744;9.162;2022-08-26T13:49:03;95767.81;;;31.36;nan
11198;BME280;5655;48.744;9.162;2022-08-26T13:51:29;95767.25;;;31.07;nan
11198;BME280;5655;48.744;9.162;2022-08-26T13:53:55;95772.41;;;30.81;nan
11198;BME280;5655;48.744;9.162;2022-08-26T13:56:21;95772.78;;;30.61;nan
11198;BME280;5655;48.744;9.162;2022-08-26T13:58:47;95774.56;;;30.58;nan
11198;BME280;5655;48.744;9.162;2022-08-26T14:01:14;95761.97;;;30.63;nan
11198;BME280;5655;48.744;9.162;2022-08-26T14:03:40;95757.00;;;30.50;nan
11198;BME280;5655;48.744;9.162;2022-08-26T14:06:05;95754.25;;;30.34;nan
11198;BME280;5655;48.744;9.162;2022-08-26T14:08:31;95751.28;;;30.32;nan
11198;BME280;5655;48.744;9.162;2022-08-26T14:10:57;95744.44;;;30.49;nan
11198;BME280;5655;48.744;9.162;2022-08-26T14:13:22;95756.25;;;30.50;nan
11198;BME280;5655;48.744;9.162;2022-08-26T14:15:48;95746.94;;;30.53;nan
11198;BME280;5655;48.744;9.162;2022-08-26T14:18:15;95755.22;;;30.53;nan
11198;BME280;5655;48.744;9.162;2022-08-26T14:20:45;95750.06;;;30.79;nan
11198;BME280;5655;48.744;9.162;2022-08-26T14:23:12;95756.19;;;30.61;nan
11198;BME280;5655;48.744;9.162;2022-08-26T14:25:37;95751.72;;;30.47;nan
11198;BME280;5655;48.744;9.162;2022-08-26T14:28:03;95740.16;;;30.43;nan
11198;BME280;5655;48.744;9.162;2022-08-26T14:30:28;95756.47;;;30.57;nan
11198;BME280;5655;48.744;9.162;2022-08-26T14:32:56;95749.22;;;30.49;nan
11198;BME280;5655;48.744;9.162;2022-08-26T14:35:25;95748.22;;;30.41;nan
11198;BME280;5655;48.744;9.162;2022-08-26T14:37:50;95754.81;;;30.27;nan
11198;BME280;5655;48.744;9.162;2022-08-26T14:40:17;95760.28;;;30.49;nan
11198;BME280;5655;48.744;9.162;2022-08-26T14:42:46;95766.75;;;30.62;nan
11198;BME280;5655;48.744;9.162;2022-08-26T14:45:15;95766.13;;;30.29;nan